sensor_id;sensor_type;location;lat;lon;timestamp;pressure;altitude;pressure_sealevel;temperature;humidity
62524;BME280;53689;56.878;60.672;2023-05-22T00:00:22;99158.72;;;24.31;22.23
62524;BME280;53689;56.878;60.672;2023-05-22T00:02:49;99156.97;;;24.23;21.85
62524;BME280;53689;56.878;60.672;2023-05-22T00:05:16;99156.66;;;24.33;21.95
62524;BME280;53689;56.878;60.672;2023-05-22T00:07:44;99161.88;;;24.35;21.57
62524;BME280;53689;56.878;60.672;2023-05-22T00:10:11;99162.41;;;24.23;22.33
62524;BME280;53689;56.878;60.672;2023-05-22T00:12:40;99160.00;;;24.35;21.60
62524;BME280;53689;56.878;60.672;2023-05-22T00:15:07;99164.47;;;24.21;21.60
62524;BME280;53689;56.878;60.672;2023-05-22T00:17:35;99167.81;;;24.23;22.08
62524;BME280;53689;56.878;60.672;2023-05-22T00:20:02;99160.91;;;24.21;21.86
62524;BME280;53689;56.878;60.672;2023-05-22T00:22:29;99165.28;;;24.22;22.21
62524;BME280;53689;56.878;60.672;2023-05-22T00:24:57;99160.47;;;24.39;21.83
62524;BME280;53689;56.878;60.672;2023-05-22T00:27:24;99159.16;;;24.35;22.12
62524;BME280;53689;56.878;60.672;2023-05-22T00:29:56;99165.22;;;24.15;22.26
62524;BME280;53689;56.878;60.672;2023-05-22T00:32:24;99166.19;;;24.29;22.39
62524;BME280;53689;56.878;60.672;2023-05-22T00:34:51;99167.97;;;24.22;22.04
62524;BME280;53689;56.878;60.672;2023-05-22T00:37:18;99165.56;;;24.27;22.31
62524;BME280;53689;56.878;60.672;2023-05-22T00:39:46;99170.31;;;24.25;22.47
62524;BME280;53689;56.878;60.672;2023-05-22T00:42:13;99175.06;;;24.23;22.42
62524;BME280;53689;56.878;60.672;2023-05-22T00:44:40;99169.97;;;24.35;22.35
62524;BME280;53689;56.878;60.672;2023-05-22T00:47:09;99174.53;;;24.56;21.91
62524;BME280;53689;56.878;60.672;2023-05-22T00:49:36;99170.44;;;24.38;22.12
62524;BME280;53689;56.878;60.672;2023-05-22T00:52:04;99174.41;;;23.32;23.28
62524;BME280;53689;56.878;60.672;2023-05-22T00:54:31;99179.31;;;23.13;23.37
62524;BME280;53689;56.878;60.672;2023-05-22T00:56:58;99180.25;;;23.06;23.37
62524;BME280;53689;56.878;60.672;2023-05-22T00:59:26;99170.41;;;22.98;23.48
62524;BME280;53689;56.878;60.672;2023-05-22T01:01:54;99177.75;;;23.04;23.80
62524;BME280;53689;56.878;60.672;2023-05-22T01:04:23;99171.97;;;23.07;23.52
62524;BME280;53689;56.878;60.672;2023-05-22T01:06:51;99179.22;;;23.07;23.86
62524;BME280;53689;56.878;60.672;2023-05-22T01:09:19;99181.47;;;23.03;23.82
62524;BME280;53689;56.878;60.672;2023-05-22T01:11:48;99176.19;;;23.10;23.83
62524;BME280;53689;56.878;60.672;2023-05-22T01:17:00;99186.03;;;22.88;24.35
62524;BME280;53689;56.878;60.672;2023-05-22T01:19:40;99183.88;;;22.83;24.18
62524;BME280;53689;56.878;60.672;2023-05-22T01:22:17;99182.66;;;22.85;24.37
62524;BME280;53689;56.878;60.672;2023-05-22T01:24:52;99180.63;;;22.88;24.30
62524;BME280;53689;56.878;60.672;2023-05-22T01:30:16;99184.78;;;22.90;24.31
62524;BME280;53689;56.878;60.672;2023-05-22T01:32:48;99186.84;;;22.88;24.80
62524;BME280;53689;56.878;60.672;2023-05-22T01:35:16;99185.47;;;22.77;24.79
62524;BME280;53689;56.878;60.672;2023-05-22T01:37:44;99187.13;;;22.78;24.52
62524;BME280;53689;56.878;60.672;2023-05-22T01:40:11;99194.56;;;22.76;24.54
62524;BME280;53689;56.878;60.672;2023-05-22T01:42:39;99181.94;;;22.92;24.83
62524;BME280;53689;56.878;60.672;2023-05-22T01:45:07;99187.47;;;22.75;24.46
62524;BME280;53689;56.878;60.672;2023-05-22T01:47:35;99194.09;;;22.72;24.91
62524;BME280;53689;56.878;60.672;2023-05-22T01:50:04;99195.50;;;22.83;24.56
62524;BME280;53689;56.878;60.672;2023-05-22T01:52:34;99202.09;;;22.81;24.51
62524;BME280;53689;56.878;60.672;2023-05-22T01:55:05;99199.84;;;22.69;24.76
62524;BME280;53689;56.878;60.672;2023-05-22T01:57:36;99195.31;;;22.70;24.79
62524;BME280;53689;56.878;60.672;2023-05-22T02:00:10;99205.25;;;22.69;24.81
62524;BME280;53689;56.878;60.672;2023-05-22T02:02:47;99207.13;;;22.69;24.76
62524;BME280;53689;56.878;60.672;2023-05-22T02:05:18;99197.78;;;22.71;25.01
62524;BME280;53689;56.878;60.672;2023-05-22T02:07:49;99199.41;;;22.81;24.75
62524;BME280;53689;56.878;60.672;2023-05-22T02:10:17;99196.25;;;22.77;25.02
62524;BME280;53689;56.878;60.672;2023-05-22T02:12:44;99202.47;;;22.78;24.82
62524;BME280;53689;56.878;60.672;2023-05-22T02:15:11;99201.84;;;22.91;24.00
62524;BME280;53689;56.878;60.672;2023-05-22T02:17:40;99195.44;;;22.92;24.60
62524;BME280;53689;56.878;60.672;2023-05-22T02:20:09;99209.50;;;23.02;24.06
62524;BME280;53689;56.878;60.672;2023-05-22T02:22:41;99208.38;;;23.11;24.08
62524;BME280;53689;56.878;60.672;2023-05-22T02:25:09;99205.03;;;23.09;23.90
62524;BME280;53689;56.878;60.672;2023-05-22T02:27:37;99206.16;;;23.00;24.10
62524;BME280;53689;56.878;60.672;2023-05-22T02:30:04;99207.81;;;23.01;24.19
62524;BME280;53689;56.878;60.672;2023-05-22T02:32:32;99205.56;;;22.90;24.56
62524;BME280;53689;56.878;60.672;2023-05-22T02:35:00;99205.59;;;23.20;24.45
62524;BME280;53689;56.878;60.672;2023-05-22T02:37:27;99209.25;;;23.12;24.11
62524;BME280;53689;56.878;60.672;2023-05-22T02:40:01;99209.81;;;23.22;24.08
62524;BME280;53689;56.878;60.672;2023-05-22T02:42:53;99211.38;;;23.17;24.58
62524;BME280;53689;56.878;60.672;2023-05-22T02:45:20;99207.56;;;23.26;24.06
62524;BME280;53689;56.878;60.672;2023-05-22T02:47:48;99208.38;;;23.11;24.50
62524;BME280;53689;56.878;60.672;2023-05-22T02:50:15;99203.38;;;23.08;24.50
62524;BME280;53689;56.878;60.672;2023-05-22T02:52:42;99204.41;;;23.07;24.51
62524;BME280;53689;56.878;60.672;2023-05-22T02:55:11;99202.91;;;23.20;23.89
62524;BME280;53689;56.878;60.672;2023-05-22T02:57:38;99201.31;;;23.10;24.58
62524;BME280;53689;56.878;60.672;2023-05-22T03:00:06;99207.53;;;23.34;23.53
62524;BME280;53689;56.878;60.672;2023-05-22T03:02:33;99211.69;;;23.37;24.31
62524;BME280;53689;56.878;60.672;2023-05-22T03:05:00;99208.81;;;23.38;23.71
62524;BME280;53689;56.878;60.672;2023-05-22T03:07:28;99205.16;;;23.31;24.29
62524;BME280;53689;56.878;60.672;2023-05-22T03:09:55;99208.50;;;23.33;24.30
62524;BME280;53689;56.878;60.672;2023-05-22T03:12:24;99217.06;;;23.22;24.39
62524;BME280;53689;56.878;60.672;2023-05-22T03:14:51;99218.25;;;23.04;24.71
62524;BME280;53689;56.878;60.672;2023-05-22T03:17:18;99214.56;;;23.05;24.18
62524;BME280;53689;56.878;60.672;2023-05-22T03:19:46;99214.72;;;23.19;24.86
62524;BME280;53689;56.878;60.672;2023-05-22T03:22:13;99211.25;;;22.95;24.85
62524;BME280;53689;56.878;60.672;2023-05-22T03:24:41;99220.28;;;23.02;23.90
62524;BME280;53689;56.878;60.672;2023-05-22T03:27:08;99223.88;;;23.18;23.91
62524;BME280;53689;56.878;60.672;2023-05-22T03:29:40;99218.31;;;23.49;24.12
62524;BME280;53689;56.878;60.672;2023-05-22T03:32:07;99223.50;;;23.66;23.63
62524;BME280;53689;56.878;60.672;2023-05-22T03:34:35;99225.66;;;23.40;23.75
62524;BME280;53689;56.878;60.672;2023-05-22T03:37:04;99223.72;;;23.34;24.04
62524;BME280;53689;56.878;60.672;2023-05-22T03:39:34;99222.97;;;23.40;23.45
62524;BME280;53689;56.878;60.672;2023-05-22T03:42:11;99223.22;;;23.76;23.36
62524;BME280;53689;56.878;60.672;2023-05-22T03:44:39;99218.75;;;23.83;23.57
62524;BME280;53689;56.878;60.672;2023-05-22T03:47:07;99225.94;;;23.76;23.75
62524;BME280;53689;56.878;60.672;2023-05-22T03:49:34;99225.06;;;23.90;23.68
62524;BME280;53689;56.878;60.672;2023-05-22T03:52:03;99227.97;;;23.89;23.70
62524;BME280;53689;56.878;60.672;2023-05-22T03:54:31;99226.78;;;23.76;23.77
62524;BME280;53689;56.878;60.672;2023-05-22T03:56:58;99227.88;;;23.82;23.61
62524;BME280;53689;56.878;60.672;2023-05-22T03:59:25;99228.91;;;23.81;23.20
62524;BME280;53689;56.878;60.672;2023-05-22T04:01:54;99226.47;;;23.86;23.72
62524;BME280;53689;56.878;60.672;2023-05-22T04:04:22;99234.09;;;23.97;22.61
62524;BME280;53689;56.878;60.672;2023-05-22T04:06:49;99227.78;;;24.05;22.76
62524;BME280;53689;56.878;60.672;2023-05-22T04:09:16;99234.19;;;24.04;22.77
62524;BME280;53689;56.878;60.672;2023-05-22T04:11:43;99234.16;;;24.19;22.67
62524;BME280;53689;56.878;60.672;2023-05-22T04:14:11;99233.78;;;24.22;23.36
62524;BME280;53689;56.878;60.672;2023-05-22T04:16:38;99237.31;;;24.23;22.93
62524;BME280;53689;56.878;60.672;2023-05-22T04:19:06;99229.97;;;24.17;23.13
62524;BME280;53689;56.878;60.672;2023-05-22T04:21:34;99243.03;;;24.13;23.14
62524;BME280;53689;56.878;60.672;2023-05-22T04:24:01;99236.78;;;24.13;22.72
62524;BME280;53689;56.878;60.672;2023-05-22T04:26:30;99236.31;;;24.24;23.34
62524;BME280;53689;56.878;60.672;2023-05-22T04:28:57;99241.03;;;24.22;23.80
62524;BME280;53689;56.878;60.672;2023-05-22T04:31:26;99243.31;;;24.40;23.48
62524;BME280;53689;56.878;60.672;2023-05-22T04:33:54;99240.22;;;24.43;23.54
62524;BME280;53689;56.878;60.672;2023-05-22T04:36:23;99240.88;;;24.45;23.64
62524;BME280;53689;56.878;60.672;2023-05-22T04:38:50;99242.41;;;24.55;23.08
62524;BME280;53689;56.878;60.672;2023-05-22T04:41:17;99240.28;;;24.28;23.57
62524;BME280;53689;56.878;60.672;2023-05-22T04:43:50;99236.88;;;24.41;23.88
62524;BME280;53689;56.878;60.672;2023-05-22T04:46:17;99238.03;;;24.53;23.24
62524;BME280;53689;56.878;60.672;2023-05-22T04:48:44;99239.25;;;24.51;22.90
62524;BME280;53689;56.878;60.672;2023-05-22T04:51:11;99242.28;;;24.63;23.15
62524;BME280;53689;56.878;60.672;2023-05-22T04:53:40;99242.88;;;24.58;23.89
62524;BME280;53689;56.878;60.672;2023-05-22T04:56:07;99229.72;;;24.55;23.62
62524;BME280;53689;56.878;60.672;2023-05-22T04:58:34;99235.84;;;24.64;23.23
62524;BME280;53689;56.878;60.672;2023-05-22T05:01:02;99236.88;;;24.63;23.84
62524;BME280;53689;56.878;60.672;2023-05-22T05:03:29;99236.03;;;24.62;23.75
62524;BME280;53689;56.878;60.672;2023-05-22T05:05:57;99230.22;;;24.65;23.60
62524;BME280;53689;56.878;60.672;2023-05-22T05:08:25;99238.22;;;24.74;23.60
62524;BME280;53689;56.878;60.672;2023-05-22T05:10:53;99236.91;;;24.70;23.20
62524;BME280;53689;56.878;60.672;2023-05-22T05:13:21;99236.81;;;24.34;24.21
62524;BME280;53689;56.878;60.672;2023-05-22T05:15:49;99240.28;;;24.28;23.63
62524;BME280;53689;56.878;60.672;2023-05-22T05:18:18;99237.00;;;24.55;22.88
62524;BME280;53689;56.878;60.672;2023-05-22T05:20:46;99235.84;;;24.86;23.31
62524;BME280;53689;56.878;60.672;2023-05-22T05:23:13;99243.31;;;24.62;22.82
62524;BME280;53689;56.878;60.672;2023-05-22T05:25:41;99238.88;;;24.54;23.53
62524;BME280;53689;56.878;60.672;2023-05-22T05:28:10;99237.22;;;24.53;23.22
62524;BME280;53689;56.878;60.672;2023-05-22T05:30:39;99238.66;;;24.99;21.71
62524;BME280;53689;56.878;60.672;2023-05-22T05:33:27;99240.47;;;24.70;22.83
62524;BME280;53689;56.878;60.672;2023-05-22T05:36:00;99242.13;;;24.93;21.61
62524;BME280;53689;56.878;60.672;2023-05-22T05:38:28;99236.94;;;24.91;21.50
62524;BME280;53689;56.878;60.672;2023-05-22T05:40:56;99239.72;;;24.76;21.87
62524;BME280;53689;56.878;60.672;2023-05-22T05:43:24;99234.44;;;24.68;22.33
62524;BME280;53689;56.878;60.672;2023-05-22T05:45:55;99236.88;;;24.85;21.22
62524;BME280;53689;56.878;60.672;2023-05-22T05:48:22;99235.97;;;25.34;20.67
62524;BME280;53689;56.878;60.672;2023-05-22T05:50:50;99235.69;;;25.23;20.70
62524;BME280;53689;56.878;60.672;2023-05-22T05:53:18;99233.44;;;24.98;20.94
62524;BME280;53689;56.878;60.672;2023-05-22T05:55:51;99235.22;;;25.12;21.00
62524;BME280;53689;56.878;60.672;2023-05-22T05:58:19;99234.31;;;25.33;20.32
62524;BME280;53689;56.878;60.672;2023-05-22T06:00:59;99236.34;;;25.60;20.38
62524;BME280;53689;56.878;60.672;2023-05-22T06:03:26;99234.69;;;24.95;21.15
62524;BME280;53689;56.878;60.672;2023-05-22T06:06:10;99232.56;;;24.90;21.23
62524;BME280;53689;56.878;60.672;2023-05-22T06:08:56;99226.47;;;24.88;21.71
62524;BME280;53689;56.878;60.672;2023-05-22T06:11:29;99237.66;;;25.35;20.72
62524;BME280;53689;56.878;60.672;2023-05-22T06:13:56;99235.41;;;25.11;20.55
62524;BME280;53689;56.878;60.672;2023-05-22T06:16:25;99230.53;;;24.99;20.64
62524;BME280;53689;56.878;60.672;2023-05-22T06:18:53;99235.66;;;25.16;20.28
62524;BME280;53689;56.878;60.672;2023-05-22T06:21:20;99223.16;;;25.50;19.73
62524;BME280;53689;56.878;60.672;2023-05-22T06:23:48;99230.75;;;25.33;20.14
62524;BME280;53689;56.878;60.672;2023-05-22T06:26:16;99228.22;;;25.31;20.42
62524;BME280;53689;56.878;60.672;2023-05-22T06:28:44;99227.06;;;25.83;20.00
62524;BME280;53689;56.878;60.672;2023-05-22T06:31:12;99224.72;;;25.66;19.68
62524;BME280;53689;56.878;60.672;2023-05-22T06:33:44;99222.31;;;25.49;19.31
62524;BME280;53689;56.878;60.672;2023-05-22T06:36:12;99217.13;;;25.55;20.14
62524;BME280;53689;56.878;60.672;2023-05-22T06:38:39;99218.16;;;25.54;20.07
62524;BME280;53689;56.878;60.672;2023-05-22T06:41:17;99220.13;;;25.73;19.59
62524;BME280;53689;56.878;60.672;2023-05-22T06:43:44;99220.78;;;25.75;19.13
62524;BME280;53689;56.878;60.672;2023-05-22T06:46:12;99222.91;;;25.80;18.77
62524;BME280;53689;56.878;60.672;2023-05-22T06:48:40;99219.28;;;25.66;18.88
62524;BME280;53689;56.878;60.672;2023-05-22T06:51:24;99218.41;;;25.59;18.64
62524;BME280;53689;56.878;60.672;2023-05-22T06:54:00;99210.66;;;25.56;18.71
62524;BME280;53689;56.878;60.672;2023-05-22T06:56:30;99217.84;;;25.70;18.61
62524;BME280;53689;56.878;60.672;2023-05-22T06:59:01;99208.56;;;26.00;18.59
62524;BME280;53689;56.878;60.672;2023-05-22T07:01:52;99220.41;;;25.85;19.03
62524;BME280;53689;56.878;60.672;2023-05-22T07:04:32;99214.09;;;25.78;19.14
62524;BME280;53689;56.878;60.672;2023-05-22T07:07:06;99213.97;;;25.51;18.74
62524;BME280;53689;56.878;60.672;2023-05-22T07:09:33;99202.03;;;25.45;18.94
62524;BME280;53689;56.878;60.672;2023-05-22T07:12:02;99210.56;;;25.71;18.98
62524;BME280;53689;56.878;60.672;2023-05-22T07:14:30;99212.59;;;25.69;18.93
62524;BME280;53689;56.878;60.672;2023-05-22T07:16:57;99221.63;;;25.41;19.85
62524;BME280;53689;56.878;60.672;2023-05-22T07:19:30;99211.06;;;25.17;19.98
62524;BME280;53689;56.878;60.672;2023-05-22T07:22:01;99216.81;;;25.01;20.50
62524;BME280;53689;56.878;60.672;2023-05-22T07:24:32;99225.16;;;25.06;19.67
62524;BME280;53689;56.878;60.672;2023-05-22T07:27:01;99224.38;;;25.12;19.16
62524;BME280;53689;56.878;60.672;2023-05-22T07:29:29;99224.44;;;25.54;18.60
62524;BME280;53689;56.878;60.672;2023-05-22T07:31:58;99217.84;;;25.35;19.13
62524;BME280;53689;56.878;60.672;2023-05-22T07:34:26;99217.13;;;25.19;18.85
62524;BME280;53689;56.878;60.672;2023-05-22T07:36:55;99218.75;;;25.49;19.47
62524;BME280;53689;56.878;60.672;2023-05-22T07:39:22;99214.69;;;24.96;20.36
62524;BME280;53689;56.878;60.672;2023-05-22T07:41:51;99214.00;;;25.23;19.31
62524;BME280;53689;56.878;60.672;2023-05-22T07:44:21;99217.22;;;25.68;18.76
62524;BME280;53689;56.878;60.672;2023-05-22T07:46:49;99212.75;;;25.54;19.13
62524;BME280;53689;56.878;60.672;2023-05-22T07:49:19;99204.84;;;25.52;17.90
62524;BME280;53689;56.878;60.672;2023-05-22T07:51:46;99217.66;;;25.79;18.49
62524;BME280;53689;56.878;60.672;2023-05-22T07:54:15;99207.25;;;25.82;17.57
62524;BME280;53689;56.878;60.672;2023-05-22T07:56:45;99207.69;;;25.93;18.14
62524;BME280;53689;56.878;60.672;2023-05-22T07:59:16;99209.78;;;25.90;17.79
62524;BME280;53689;56.878;60.672;2023-05-22T08:01:44;99204.75;;;25.87;17.94
62524;BME280;53689;56.878;60.672;2023-05-22T08:04:11;99209.09;;;25.75;18.13
62524;BME280;53689;56.878;60.672;2023-05-22T08:06:39;99209.34;;;25.87;17.91
62524;BME280;53689;56.878;60.672;2023-05-22T08:09:06;99204.28;;;25.77;18.48
62524;BME280;53689;56.878;60.672;2023-05-22T08:11:33;99203.88;;;25.73;17.92
62524;BME280;53689;56.878;60.672;2023-05-22T08:14:00;99211.09;;;25.59;18.48
62524;BME280;53689;56.878;60.672;2023-05-22T08:16:29;99209.22;;;25.53;20.38
62524;BME280;53689;56.878;60.672;2023-05-22T08:18:57;99197.66;;;25.86;18.73
62524;BME280;53689;56.878;60.672;2023-05-22T08:21:24;99205.53;;;26.43;17.68
62524;BME280;53689;56.878;60.672;2023-05-22T08:23:51;99203.34;;;26.05;17.93
62524;BME280;53689;56.878;60.672;2023-05-22T08:26:18;99205.25;;;26.04;17.95
62524;BME280;53689;56.878;60.672;2023-05-22T08:28:47;99195.38;;;25.97;18.44
62524;BME280;53689;56.878;60.672;2023-05-22T08:31:14;99198.66;;;26.48;18.14
62524;BME280;53689;56.878;60.672;2023-05-22T08:33:42;99203.66;;;26.51;17.29
62524;BME280;53689;56.878;60.672;2023-05-22T08:36:10;99204.47;;;26.31;18.08
62524;BME280;53689;56.878;60.672;2023-05-22T08:38:37;99202.13;;;26.14;17.51
62524;BME280;53689;56.878;60.672;2023-05-22T08:41:04;99198.88;;;25.84;18.50
62524;BME280;53689;56.878;60.672;2023-05-22T08:43:31;99200.00;;;26.03;18.17
62524;BME280;53689;56.878;60.672;2023-05-22T08:45:59;99201.84;;;25.96;18.68
62524;BME280;53689;56.878;60.672;2023-05-22T08:48:29;99197.63;;;26.49;17.77
62524;BME280;53689;56.878;60.672;2023-05-22T08:51:01;99195.03;;;26.13;17.88
62524;BME280;53689;56.878;60.672;2023-05-22T08:53:29;99186.91;;;26.27;18.01
62524;BME280;53689;56.878;60.672;2023-05-22T08:55:57;99200.63;;;26.05;17.49
62524;BME280;53689;56.878;60.672;2023-05-22T08:58:24;99187.16;;;26.32;18.15
62524;BME280;53689;56.878;60.672;2023-05-22T09:00:52;99192.53;;;26.18;17.60
62524;BME280;53689;56.878;60.672;2023-05-22T09:03:20;99197.78;;;26.20;18.42
62524;BME280;53689;56.878;60.672;2023-05-22T09:05:47;99195.28;;;26.45;16.95
62524;BME280;53689;56.878;60.672;2023-05-22T09:08:16;99196.06;;;26.12;17.88
62524;BME280;53689;56.878;60.672;2023-05-22T09:10:46;99190.63;;;26.12;17.40
62524;BME280;53689;56.878;60.672;2023-05-22T09:13:22;99197.16;;;26.25;16.98
62524;BME280;53689;56.878;60.672;2023-05-22T09:15:50;99187.16;;;26.25;16.88
62524;BME280;53689;56.878;60.672;2023-05-22T09:18:17;99187.16;;;26.25;17.63
62524;BME280;53689;56.878;60.672;2023-05-22T09:20:44;99186.53;;;26.37;16.76
62524;BME280;53689;56.878;60.672;2023-05-22T09:23:12;99190.03;;;26.17;17.72
62524;BME280;53689;56.878;60.672;2023-05-22T09:25:41;99195.53;;;26.37;17.09
62524;BME280;53689;56.878;60.672;2023-05-22T09:28:09;99186.53;;;26.37;16.86
62524;BME280;53689;56.878;60.672;2023-05-22T09:30:37;99190.72;;;26.33;17.76
62524;BME280;53689;56.878;60.672;2023-05-22T09:33:05;99189.00;;;26.31;16.99
62524;BME280;53689;56.878;60.672;2023-05-22T09:35:32;99196.88;;;26.06;17.65
62524;BME280;53689;56.878;60.672;2023-05-22T09:38:00;99194.34;;;25.98;17.65
62524;BME280;53689;56.878;60.672;2023-05-22T09:40:27;99194.63;;;25.54;18.59
62524;BME280;53689;56.878;60.672;2023-05-22T09:42:56;99196.78;;;25.72;18.36
62524;BME280;53689;56.878;60.672;2023-05-22T09:45:23;99194.06;;;25.79;18.30
62524;BME280;53689;56.878;60.672;2023-05-22T09:47:50;99193.84;;;25.32;17.97
62524;BME280;53689;56.878;60.672;2023-05-22T09:50:18;99204.09;;;25.37;17.40
62524;BME280;53689;56.878;60.672;2023-05-22T09:52:45;99197.31;;;25.19;17.87
62524;BME280;53689;56.878;60.672;2023-05-22T09:55:13;99201.56;;;25.35;18.35
62524;BME280;53689;56.878;60.672;2023-05-22T09:57:42;99193.78;;;25.54;18.16
62524;BME280;53689;56.878;60.672;2023-05-22T10:00:12;99198.59;;;25.23;18.11
62524;BME280;53689;56.878;60.672;2023-05-22T10:02:40;99196.91;;;25.22;18.61
62524;BME280;53689;56.878;60.672;2023-05-22T10:05:08;99198.09;;;25.13;18.68
62524;BME280;53689;56.878;60.672;2023-05-22T10:07:36;99194.47;;;25.34;21.26
62524;BME280;53689;56.878;60.672;2023-05-22T10:10:09;99200.44;;;25.51;19.04
62524;BME280;53689;56.878;60.672;2023-05-22T10:12:37;99202.78;;;25.26;19.42
62524;BME280;53689;56.878;60.672;2023-05-22T10:15:07;99204.38;;;25.13;19.01
62524;BME280;53689;56.878;60.672;2023-05-22T10:17:37;99200.09;;;25.32;18.46
62524;BME280;53689;56.878;60.672;2023-05-22T10:20:06;99195.50;;;25.68;18.52
62524;BME280;53689;56.878;60.672;2023-05-22T10:22:34;99203.53;;;25.48;18.72
62524;BME280;53689;56.878;60.672;2023-05-22T10:25:02;99202.78;;;25.26;18.19
62524;BME280;53689;56.878;60.672;2023-05-22T10:27:29;99199.88;;;25.27;18.46
62524;BME280;53689;56.878;60.672;2023-05-22T10:29:57;99195.78;;;25.87;18.59
62524;BME280;53689;56.878;60.672;2023-05-22T10:32:32;99201.75;;;25.69;18.79
62524;BME280;53689;56.878;60.672;2023-05-22T10:35:07;99195.53;;;25.75;18.55
62524;BME280;53689;56.878;60.672;2023-05-22T10:37:46;99195.50;;;25.68;18.40
62524;BME280;53689;56.878;60.672;2023-05-22T10:40:15;99191.88;;;26.16;18.14
62524;BME280;53689;56.878;60.672;2023-05-22T10:42:44;99194.44;;;26.25;17.39
62524;BME280;53689;56.878;60.672;2023-05-22T10:45:11;99192.72;;;26.10;17.55
62524;BME280;53689;56.878;60.672;2023-05-22T10:47:39;99185.81;;;26.01;18.42
62524;BME280;53689;56.878;60.672;2023-05-22T10:50:09;99195.00;;;26.07;18.25
62524;BME280;53689;56.878;60.672;2023-05-22T10:52:37;99189.25;;;26.50;17.55
62524;BME280;53689;56.878;60.672;2023-05-22T10:55:05;99191.56;;;26.47;17.65
62524;BME280;53689;56.878;60.672;2023-05-22T10:57:33;99198.97;;;26.17;17.56
62524;BME280;53689;56.878;60.672;2023-05-22T11:00:07;99188.97;;;26.18;18.11
62524;BME280;53689;56.878;60.672;2023-05-22T11:02:37;99194.41;;;26.18;18.12
62524;BME280;53689;56.878;60.672;2023-05-22T11:07:48;99185.06;;;26.34;17.82
62524;BME280;53689;56.878;60.672;2023-05-22T11:10:24;99188.81;;;26.26;18.38
62524;BME280;53689;56.878;60.672;2023-05-22T11:13:01;99186.88;;;26.07;17.65
62524;BME280;53689;56.878;60.672;2023-05-22T11:15:29;99182.59;;;26.66;17.51
62524;BME280;53689;56.878;60.672;2023-05-22T11:17:58;99180.69;;;26.60;16.69
62524;BME280;53689;56.878;60.672;2023-05-22T11:20:28;99185.50;;;26.71;16.67
62524;BME280;53689;56.878;60.672;2023-05-22T11:22:57;99185.91;;;26.68;17.07
62524;BME280;53689;56.878;60.672;2023-05-22T11:25:25;99177.97;;;27.00;16.72
62524;BME280;53689;56.878;60.672;2023-05-22T11:27:53;99185.69;;;26.83;16.64
62524;BME280;53689;56.878;60.672;2023-05-22T11:30:23;99179.84;;;26.53;17.17
62524;BME280;53689;56.878;60.672;2023-05-22T11:32:51;99173.59;;;26.59;17.72
62524;BME280;53689;56.878;60.672;2023-05-22T11:35:19;99176.09;;;26.81;16.87
62524;BME280;53689;56.878;60.672;2023-05-22T11:37:46;99179.00;;;26.99;16.53
62524;BME280;53689;56.878;60.672;2023-05-22T11:40:17;99163.78;;;26.92;17.04
62524;BME280;53689;56.878;60.672;2023-05-22T11:42:44;99165.84;;;26.69;16.70
62524;BME280;53689;56.878;60.672;2023-05-22T11:45:12;99170.22;;;26.77;16.69
62524;BME280;53689;56.878;60.672;2023-05-22T11:47:41;99164.78;;;27.11;16.69
62524;BME280;53689;56.878;60.672;2023-05-22T11:50:10;99166.25;;;26.93;17.50
62524;BME280;53689;56.878;60.672;2023-05-22T11:52:39;99169.19;;;26.85;16.28
62524;BME280;53689;56.878;60.672;2023-05-22T11:55:08;99165.22;;;26.81;16.40
62524;BME280;53689;56.878;60.672;2023-05-22T11:57:37;99171.63;;;27.34;16.16
62524;BME280;53689;56.878;60.672;2023-05-22T12:00:05;99164.13;;;27.15;16.57
62524;BME280;53689;56.878;60.672;2023-05-22T12:02:43;99163.75;;;26.98;16.47
62524;BME280;53689;56.878;60.672;2023-05-22T12:05:10;99160.63;;;26.95;16.41
62524;BME280;53689;56.878;60.672;2023-05-22T12:07:37;99166.03;;;27.01;16.77
62524;BME280;53689;56.878;60.672;2023-05-22T12:10:05;99160.50;;;27.42;15.55
62524;BME280;53689;56.878;60.672;2023-05-22T12:12:32;99167.03;;;27.27;15.95
62524;BME280;53689;56.878;60.672;2023-05-22T12:15:03;99164.59;;;26.99;16.11
62524;BME280;53689;56.878;60.672;2023-05-22T12:17:31;99159.78;;;27.01;16.16
62524;BME280;53689;56.878;60.672;2023-05-22T12:19:58;99158.56;;;27.63;16.24
62524;BME280;53689;56.878;60.672;2023-05-22T12:22:25;99162.16;;;27.50;16.03
62524;BME280;53689;56.878;60.672;2023-05-22T12:24:52;99160.34;;;27.17;16.07
62524;BME280;53689;56.878;60.672;2023-05-22T12:27:19;99157.09;;;26.94;16.23
62524;BME280;53689;56.878;60.672;2023-05-22T12:29:47;99158.84;;;27.34;15.80
62524;BME280;53689;56.878;60.672;2023-05-22T12:32:15;99163.44;;;27.40;16.41
62524;BME280;53689;56.878;60.672;2023-05-22T12:34:47;99155.16;;;27.15;16.32
62524;BME280;53689;56.878;60.672;2023-05-22T12:37:21;99161.97;;;27.38;15.99
62524;BME280;53689;56.878;60.672;2023-05-22T12:39:54;99158.81;;;27.48;15.51
62524;BME280;53689;56.878;60.672;2023-05-22T12:42:22;99146.66;;;27.50;15.74
62524;BME280;53689;56.878;60.672;2023-05-22T12:44:49;99149.63;;;27.42;15.38
62524;BME280;53689;56.878;60.672;2023-05-22T12:47:18;99159.03;;;27.46;15.45
62524;BME280;53689;56.878;60.672;2023-05-22T12:49:45;99153.00;;;27.31;15.89
62524;BME280;53689;56.878;60.672;2023-05-22T12:52:12;99147.53;;;27.44;16.21
62524;BME280;53689;56.878;60.672;2023-05-22T12:54:40;99151.31;;;27.36;16.65
62524;BME280;53689;56.878;60.672;2023-05-22T12:57:07;99144.25;;;27.22;16.56
62524;BME280;53689;56.878;60.672;2023-05-22T12:59:34;99153.50;;;27.14;15.96
62524;BME280;53689;56.878;60.672;2023-05-22T13:02:02;99156.22;;;27.14;15.95
62524;BME280;53689;56.878;60.672;2023-05-22T13:04:31;99153.97;;;27.56;15.60
62524;BME280;53689;56.878;60.672;2023-05-22T13:06:59;99155.50;;;27.32;15.57